createdAt,value
2023-02-22T00:01:03.076Z,7.90
2023-02-22T00:03:35.022Z,7.90
2023-02-22T00:06:05.118Z,7.90
2023-02-22T00:08:34.645Z,7.90
2023-02-22T00:11:04.309Z,7.90
2023-02-22T00:13:31.152Z,7.90
2023-02-22T00:15:59.962Z,7.90
2023-02-22T00:18:28.873Z,7.90
2023-02-22T00:21:01.046Z,7.80
2023-02-22T00:23:29.787Z,7.80
2023-02-22T00:25:58.217Z,7.80
2023-02-22T00:28:25.732Z,7.80
2023-02-22T00:30:52.932Z,7.80
2023-02-22T00:33:19.817Z,7.80
2023-02-22T00:35:46.934Z,7.70
2023-02-22T00:38:16.146Z,7.80
2023-02-22T00:40:43.231Z,7.80
2023-02-22T00:43:10.112Z,7.70
2023-02-22T00:45:37.760Z,7.60
2023-02-22T00:48:06.209Z,7.60
2023-02-22T00:50:34.186Z,7.60
2023-02-22T00:53:03.862Z,7.50
2023-02-22T00:55:33.426Z,7.40
2023-02-22T00:58:02.120Z,7.30
2023-02-22T01:00:35.162Z,7.30
2023-02-22T01:03:02.037Z,7.20
2023-02-22T01:05:30.189Z,7.20
2023-02-22T01:07:58.868Z,7.20
2023-02-22T01:10:28.343Z,7.10
2023-02-22T01:12:56.175Z,7.10
2023-02-22T01:15:24.707Z,7.20
2023-02-22T01:17:53.698Z,7.20
2023-02-22T01:20:29.242Z,7.20
2023-02-22T01:22:58.328Z,7.20
2023-02-22T01:25:28.742Z,7.10
2023-02-22T01:27:57.196Z,7.10
2023-02-22T01:30:29.751Z,7.10
2023-02-22T01:32:56.874Z,7.10
2023-02-22T01:35:29.971Z,7.10
2023-02-22T01:37:58.227Z,7.10
2023-02-22T01:40:31.897Z,7.10
2023-02-22T01:43:02.094Z,7.10
2023-02-22T01:45:55.081Z,7.00
2023-02-22T01:48:45.223Z,7.00
2023-02-22T01:51:27.891Z,7.00
2023-02-22T01:54:29.610Z,7.00
2023-02-22T01:57:27.339Z,6.90
2023-02-22T01:59:59.231Z,6.90
2023-02-22T02:02:26.548Z,6.90
2023-02-22T02:04:56.399Z,6.80
2023-02-22T02:07:24.686Z,6.70
2023-02-22T02:10:14.487Z,6.70
2023-02-22T02:12:49.911Z,6.70
2023-02-22T02:15:34.185Z,6.70
2023-02-22T02:18:07.351Z,6.70
2023-02-22T02:21:15.538Z,6.70
2023-02-22T02:24:09.177Z,6.60
2023-02-22T02:27:13.079Z,6.50
2023-02-22T02:30:32.117Z,6.50
2023-02-22T02:33:33.406Z,6.40
2023-02-22T02:36:44.559Z,6.40
2023-02-22T02:39:36.401Z,6.30
2023-02-22T02:42:08.796Z,6.30
2023-02-22T02:44:44.076Z,6.20
2023-02-22T02:47:26.578Z,6.20
2023-02-22T02:50:11.692Z,6.20
2023-02-22T02:52:41.455Z,6.10
2023-02-22T02:55:11.391Z,6.10
2023-02-22T02:57:39.139Z,6.10
2023-02-22T03:00:28.347Z,6.20
2023-02-22T03:03:29.947Z,6.20
2023-02-22T03:06:34.910Z,6.20
2023-02-22T03:09:48.142Z,6.10
2023-02-22T03:13:09.884Z,6.00
2023-02-22T03:16:21.058Z,5.90
2023-02-22T03:19:14.844Z,5.80
2023-02-22T03:21:50.036Z,5.80
2023-02-22T03:24:20.819Z,5.70
2023-02-22T03:27:04.203Z,5.50
2023-02-22T03:29:36.736Z,5.50
2023-02-22T03:32:07.902Z,5.40
2023-02-22T03:34:42.676Z,5.40
2023-02-22T03:37:17.008Z,5.30
2023-02-22T03:39:46.832Z,5.30
2023-02-22T03:42:24.492Z,5.20
2023-02-22T03:44:55.204Z,5.10
2023-02-22T03:47:30.708Z,5.10
2023-02-22T03:50:15.371Z,5.00
2023-02-22T03:52:43.604Z,5.00
2023-02-22T03:55:12.316Z,5.00
2023-02-22T03:57:43.965Z,4.90
2023-02-22T04:00:15.466Z,4.90
2023-02-22T04:02:42.548Z,4.70
2023-02-22T04:05:09.679Z,4.70
2023-02-22T04:07:37.063Z,4.70
2023-02-22T04:10:04.417Z,4.60
2023-02-22T04:12:31.268Z,4.60
2023-02-22T04:14:58.094Z,4.50
2023-02-22T04:17:24.912Z,4.50
2023-02-22T04:19:51.751Z,4.50
2023-02-22T04:22:18.653Z,4.40
2023-02-22T04:24:45.696Z,4.40
2023-02-22T04:27:12.642Z,4.40
2023-02-22T04:29:39.522Z,4.30
2023-02-22T04:32:06.872Z,4.20
2023-02-22T04:34:34.294Z,4.10
2023-02-22T04:37:01.222Z,4.10
2023-02-22T04:39:28.169Z,4.00
2023-02-22T04:41:55.076Z,4.00
2023-02-22T04:44:22.065Z,4.00
2023-02-22T04:46:49.048Z,3.90
2023-02-22T04:49:16.012Z,3.90
2023-02-22T04:51:42.956Z,3.80
2023-02-22T04:54:09.956Z,3.80
2023-02-22T04:56:36.960Z,3.80
2023-02-22T04:59:03.839Z,3.80
2023-02-22T05:01:34.950Z,3.70
2023-02-22T05:04:06.289Z,3.70
2023-02-22T05:06:33.533Z,3.60
2023-02-22T05:09:00.557Z,3.60
2023-02-22T05:11:27.467Z,3.50
2023-02-22T05:13:54.434Z,3.50
2023-02-22T05:16:21.664Z,3.40
2023-02-22T05:18:48.577Z,3.40
2023-02-22T05:21:15.842Z,3.40
2023-02-22T05:23:42.923Z,3.30
2023-02-22T05:26:11.643Z,3.30
2023-02-22T05:28:38.873Z,3.30
2023-02-22T05:31:07.537Z,3.30
2023-02-22T05:33:34.548Z,3.30
2023-02-22T05:36:01.487Z,3.30
2023-02-22T05:38:28.473Z,3.20
2023-02-22T05:40:55.367Z,3.20
2023-02-22T05:43:22.330Z,3.30
2023-02-22T05:45:49.244Z,3.30
2023-02-22T05:48:16.216Z,3.30
2023-02-22T05:50:44.476Z,3.30
2023-02-22T05:53:11.520Z,3.30
2023-02-22T05:55:38.608Z,3.40
2023-02-22T05:58:06.001Z,3.40
2023-02-22T06:00:33.886Z,3.40
2023-02-22T06:03:04.736Z,3.40
2023-02-22T06:05:31.723Z,3.40
2023-02-22T06:07:59.134Z,3.30
2023-02-22T06:10:27.095Z,3.30
2023-02-22T06:12:55.100Z,3.30
2023-02-22T06:15:23.755Z,3.30
2023-02-22T06:17:51.321Z,3.30
2023-02-22T06:20:21.518Z,3.30
2023-02-22T06:22:52.903Z,3.40
2023-02-22T06:25:24.092Z,3.40
2023-02-22T06:27:51.151Z,3.40
2023-02-22T06:30:21.373Z,3.40
2023-02-22T06:32:48.347Z,3.40
2023-02-22T06:35:16.182Z,3.40
2023-02-22T06:37:43.174Z,3.50
2023-02-22T06:40:11.354Z,3.40
2023-02-22T06:42:39.138Z,3.40
2023-02-22T06:45:06.277Z,3.40
2023-02-22T06:47:33.183Z,3.40
2023-02-22T06:50:01.089Z,3.50
2023-02-22T06:52:28.017Z,3.50
2023-02-22T06:54:54.883Z,3.50
2023-02-22T06:57:21.716Z,3.50
2023-02-22T06:59:48.574Z,3.50
2023-02-22T07:02:15.467Z,3.50
2023-02-22T07:04:43.537Z,3.50
2023-02-22T07:07:10.911Z,3.50
2023-02-22T07:09:37.818Z,3.50
2023-02-22T07:12:04.888Z,3.60
2023-02-22T07:14:31.838Z,3.60
2023-02-22T07:16:58.655Z,3.60
2023-02-22T07:19:25.519Z,3.60
2023-02-22T07:21:59.254Z,3.60
2023-02-22T07:24:28.654Z,3.60
2023-02-22T07:26:55.652Z,3.50
2023-02-22T07:29:22.625Z,3.50
2023-02-22T07:31:50.037Z,3.50
2023-02-22T07:34:17.084Z,3.50
2023-02-22T07:36:44.037Z,3.60
2023-02-22T07:39:11.217Z,3.60
2023-02-22T07:41:38.114Z,3.60
2023-02-22T07:44:05.172Z,3.60
2023-02-22T07:46:32.055Z,3.70
2023-02-22T07:48:58.909Z,3.70
2023-02-22T07:51:27.071Z,3.80
2023-02-22T07:53:54.009Z,3.80
2023-02-22T07:56:20.895Z,3.90
2023-02-22T07:58:47.788Z,4.00
2023-02-22T08:01:14.648Z,4.10
2023-02-22T08:03:42.630Z,4.30
2023-02-22T08:06:09.599Z,4.60
2023-02-22T08:08:36.528Z,4.80
2023-02-22T08:11:03.842Z,5.10
2023-02-22T08:13:30.855Z,5.40
2023-02-22T08:15:57.884Z,5.50
2023-02-22T08:18:25.728Z,5.60
2023-02-22T08:20:53.920Z,5.70
2023-02-22T08:23:25.297Z,5.90
2023-02-22T08:25:52.496Z,6.20
2023-02-22T08:28:22.562Z,6.50
2023-02-22T08:30:50.730Z,6.60
2023-02-22T08:33:19.943Z,6.70
2023-02-22T08:35:51.909Z,7.00
2023-02-22T08:38:27.700Z,7.20
2023-02-22T08:40:54.566Z,7.70
2023-02-22T08:43:22.470Z,8.30
2023-02-22T08:45:50.179Z,8.40
2023-02-22T08:48:18.074Z,8.40
2023-02-22T08:50:45.761Z,8.40
2023-02-22T08:53:14.360Z,8.50
2023-02-22T08:55:42.250Z,8.60
2023-02-22T08:58:10.004Z,8.60
2023-02-22T09:00:39.125Z,8.50
2023-02-22T09:03:09.701Z,8.50
2023-02-22T09:05:36.965Z,8.60
2023-02-22T09:08:04.406Z,8.60
2023-02-22T09:10:33.508Z,8.60
2023-02-22T09:13:01.635Z,8.80
2023-02-22T09:15:29.032Z,8.80
2023-02-22T09:17:56.488Z,8.80
2023-02-22T09:20:24.791Z,8.80
2023-02-22T09:22:53.079Z,8.90
2023-02-22T09:25:23.174Z,9.20
2023-02-22T09:27:52.075Z,9.50
2023-02-22T09:30:24.063Z,9.90
2023-02-22T09:33:00.071Z,10.40
2023-02-22T09:35:27.738Z,10.60
2023-02-22T09:37:59.543Z,11.10
2023-02-22T09:40:32.429Z,11.20
2023-02-22T09:43:45.193Z,11.30
2023-02-22T09:46:37.947Z,11.30
2023-02-22T09:49:47.400Z,11.50
2023-02-22T09:52:32.158Z,11.60
2023-02-22T09:55:41.315Z,11.90
2023-02-22T09:58:28.621Z,12.20
2023-02-22T10:01:01.091Z,12.00
2023-02-22T10:03:48.352Z,12.20
2023-02-22T10:06:21.742Z,12.60
2023-02-22T10:08:50.518Z,12.80
2023-02-22T10:11:49.050Z,12.90
2023-02-22T10:14:37.021Z,13.10
2023-02-22T10:17:55.768Z,13.40
2023-02-22T10:21:05.364Z,13.60
2023-02-22T10:24:16.299Z,13.60
2023-02-22T10:26:46.971Z,13.00
2023-02-22T10:29:40.718Z,13.10
2023-02-22T10:32:15.025Z,13.70
2023-02-22T10:34:48.515Z,13.80
2023-02-22T10:37:32.999Z,13.90
2023-02-22T10:40:17.489Z,13.80
2023-02-22T10:42:45.074Z,13.90
2023-02-22T10:45:23.822Z,14.00
2023-02-22T10:47:54.415Z,14.20
2023-02-22T10:50:22.294Z,14.10
2023-02-22T10:52:49.601Z,14.20
2023-02-22T10:55:17.376Z,14.20
2023-02-22T10:57:50.343Z,14.20
2023-02-22T11:00:39.847Z,14.20
2023-02-22T11:03:21.900Z,14.30
2023-02-22T11:05:49.528Z,14.30
2023-02-22T11:08:29.118Z,14.40
2023-02-22T11:11:00.529Z,14.50
2023-02-22T11:13:55.477Z,14.50
2023-02-22T11:16:39.275Z,14.50
2023-02-22T11:19:26.813Z,14.30
2023-02-22T11:21:57.365Z,14.00
2023-02-22T11:24:30.378Z,13.90
2023-02-22T11:27:02.619Z,13.80
2023-02-22T11:29:36.437Z,13.90
2023-02-22T11:32:22.629Z,14.00
2023-02-22T11:35:03.628Z,13.90
2023-02-22T11:37:37.326Z,13.90
2023-02-22T11:40:22.557Z,14.10
2023-02-22T11:43:06.313Z,14.30
2023-02-22T11:45:33.304Z,14.50
2023-02-22T11:48:02.786Z,14.50
2023-02-22T11:51:03.616Z,14.50
2023-02-22T11:54:00.170Z,14.60
2023-02-22T11:56:49.043Z,14.50
2023-02-22T11:59:45.462Z,14.70
2023-02-22T12:02:56.437Z,14.80
2023-02-22T12:05:47.229Z,14.90
2023-02-22T12:08:31.282Z,14.90
2023-02-22T12:11:29.223Z,15.00
2023-02-22T12:14:36.608Z,15.10
2023-02-22T12:17:58.091Z,15.30
2023-02-22T12:20:47.770Z,15.30
2023-02-22T12:24:02.712Z,15.20
2023-02-22T12:26:41.850Z,15.30
2023-02-22T12:29:33.473Z,15.30
2023-02-22T12:32:10.045Z,15.30
2023-02-22T12:35:02.012Z,15.40
2023-02-22T12:37:48.623Z,15.50
2023-02-22T12:40:32.493Z,15.40
2023-02-22T12:43:06.313Z,15.50
2023-02-22T12:45:38.380Z,15.60
2023-02-22T12:48:35.550Z,15.50
2023-02-22T12:51:54.591Z,15.30
2023-02-22T12:54:45.460Z,15.20
2023-02-22T12:57:17.133Z,15.10
2023-02-22T12:59:57.501Z,15.30
2023-02-22T13:03:10.623Z,15.40
2023-02-22T13:05:40.130Z,15.50
2023-02-22T13:08:36.445Z,15.50
2023-02-22T13:11:42.461Z,15.60
2023-02-22T13:14:30.210Z,15.70
2023-02-22T13:20:52.514Z,15.50
2023-02-22T13:24:03.995Z,15.40
2023-02-22T13:26:54.334Z,15.50
2023-02-22T13:29:28.754Z,15.60
2023-02-22T13:32:51.833Z,15.70
2023-02-22T13:35:42.509Z,15.60
2023-02-22T13:38:12.594Z,15.60
2023-02-22T13:41:24.371Z,15.60
2023-02-22T13:44:45.781Z,15.50
2023-02-22T13:53:56.143Z,15.30
2023-02-22T13:56:25.375Z,15.40
2023-02-22T13:58:59.081Z,15.40
2023-02-22T14:01:46.581Z,15.50
2023-02-22T14:04:47.517Z,15.60
2023-02-22T14:07:47.827Z,15.70
2023-02-22T14:10:56.374Z,15.70
2023-02-22T14:13:28.529Z,15.80
2023-02-22T14:16:28.195Z,15.90
2023-02-22T14:19:23.835Z,15.90
2023-02-22T14:22:05.937Z,15.90
2023-02-22T14:24:51.125Z,15.80
2023-02-22T14:27:18.602Z,15.70
2023-02-22T14:29:58.196Z,15.70
2023-02-22T14:32:32.548Z,15.70
2023-02-22T14:35:06.354Z,15.70
2023-02-22T14:37:39.325Z,15.70
2023-02-22T14:40:29.404Z,15.70
2023-02-22T14:43:20.051Z,15.70
2023-02-22T14:45:56.398Z,15.60
2023-02-22T14:48:45.147Z,15.60
2023-02-22T14:51:33.969Z,15.60
2023-02-22T14:54:09.870Z,15.50
2023-02-22T14:56:44.373Z,15.50
2023-02-22T14:59:19.051Z,15.50
2023-02-22T15:01:58.678Z,15.40
2023-02-22T15:04:32.953Z,15.40
2023-02-22T15:07:07.638Z,15.40
2023-02-22T15:09:37.581Z,15.30
2023-02-22T15:12:18.397Z,15.30
2023-02-22T15:14:47.774Z,15.30
2023-02-22T15:17:21.527Z,15.20
2023-02-22T15:19:49.776Z,15.10
2023-02-22T15:22:24.018Z,15.10
2023-02-22T15:25:00.268Z,15.00
2023-02-22T15:27:28.581Z,15.00
2023-02-22T15:30:24.071Z,14.90
2023-02-22T15:33:03.791Z,14.80
2023-02-22T15:35:33.582Z,14.80
2023-02-22T15:38:32.794Z,14.70
2023-02-22T15:41:05.114Z,14.70
2023-02-22T15:43:32.821Z,14.70
2023-02-22T15:46:01.347Z,14.60
2023-02-22T15:48:31.668Z,14.60
2023-02-22T15:51:11.763Z,14.60
2023-02-22T15:53:45.672Z,14.50
2023-02-22T15:56:19.552Z,14.50
2023-02-22T15:58:47.977Z,14.50
2023-02-22T16:01:19.237Z,14.50
2023-02-22T16:03:48.759Z,14.40
2023-02-22T16:06:25.183Z,14.30
2023-02-22T16:08:55.489Z,14.20
2023-02-22T16:11:32.148Z,14.20
2023-02-22T16:14:05.244Z,14.10
2023-02-22T16:16:35.136Z,14.00
2023-02-22T16:19:41.396Z,13.90
2023-02-22T16:22:50.067Z,13.80
2023-02-22T16:25:39.593Z,13.70
2023-02-22T16:28:34.011Z,13.70
2023-02-22T16:31:01.899Z,13.60
2023-02-22T16:33:34.100Z,13.50
2023-02-22T16:36:06.045Z,13.40
2023-02-22T16:38:34.113Z,13.40
2023-02-22T16:41:01.025Z,13.30
2023-02-22T16:43:32.827Z,13.20
2023-02-22T16:46:03.868Z,13.10
2023-02-22T16:48:32.953Z,13.10
2023-02-22T16:51:09.201Z,13.00
2023-02-22T16:53:37.508Z,12.90
2023-02-22T16:56:08.765Z,12.90
2023-02-22T16:58:39.398Z,12.90
2023-02-22T17:01:06.925Z,12.80
2023-02-22T17:03:33.821Z,12.80
2023-02-22T17:06:00.910Z,12.80
2023-02-22T17:08:27.708Z,12.70
2023-02-22T17:10:56.900Z,12.70
2023-02-22T17:13:27.178Z,12.50
2023-02-22T17:15:55.100Z,12.40
2023-02-22T17:18:23.996Z,12.30
2023-02-22T17:20:52.777Z,12.10
2023-02-22T17:23:21.068Z,12.10
2023-02-22T17:25:53.712Z,12.10
2023-02-22T17:28:21.577Z,12.00
2023-02-22T17:30:49.955Z,12.00
2023-02-22T17:33:21.461Z,12.00
2023-02-22T17:35:48.723Z,12.00
2023-02-22T17:38:18.988Z,12.00
2023-02-22T17:40:54.893Z,12.00
2023-02-22T17:43:22.817Z,11.90
2023-02-22T17:45:50.093Z,11.90
2023-02-22T17:48:18.164Z,11.80
2023-02-22T17:50:46.574Z,11.80
2023-02-22T17:53:13.801Z,11.80
2023-02-22T17:55:42.589Z,11.80
2023-02-22T17:58:14.775Z,11.80
2023-02-22T18:00:47.271Z,11.80
2023-02-22T18:03:21.581Z,11.70
2023-02-22T18:05:50.289Z,11.70
2023-02-22T18:08:17.417Z,11.60
2023-02-22T18:10:44.673Z,11.60
2023-02-22T18:13:19.350Z,11.50
2023-02-22T18:15:47.331Z,11.50
2023-02-22T18:18:14.982Z,11.40
2023-02-22T18:20:44.411Z,11.30
2023-02-22T18:23:17.194Z,11.20
2023-02-22T18:26:03.865Z,11.00
2023-02-22T18:28:36.057Z,10.90
2023-02-22T18:31:10.714Z,10.80
2023-02-22T18:33:37.629Z,10.70
2023-02-22T18:36:05.056Z,10.60
2023-02-22T18:38:32.044Z,10.50
2023-02-22T18:41:06.746Z,10.40
2023-02-22T18:43:37.138Z,10.30
2023-02-22T18:46:09.699Z,10.20
2023-02-22T18:48:37.128Z,10.10
2023-02-22T18:51:06.521Z,10.10
2023-02-22T18:53:33.462Z,10.00
2023-02-22T18:56:08.749Z,10.10
2023-02-22T18:58:36.410Z,10.10
2023-02-22T19:01:04.052Z,10.10
2023-02-22T19:03:32.693Z,10.10
2023-02-22T19:06:04.827Z,10.00
2023-02-22T19:08:32.705Z,10.00
2023-02-22T19:11:08.488Z,10.00
2023-02-22T19:13:35.993Z,9.90
2023-02-22T19:16:05.033Z,9.90
2023-02-22T19:18:32.076Z,9.90
2023-02-22T19:21:08.608Z,9.90
2023-02-22T19:23:37.483Z,9.90
2023-02-22T19:26:05.182Z,9.80
2023-02-22T19:28:34.760Z,9.80
2023-02-22T19:31:26.751Z,9.80
2023-02-22T19:33:53.739Z,9.80
2023-02-22T19:36:23.218Z,9.80
2023-02-22T19:38:50.364Z,9.80
2023-02-22T19:41:20.812Z,9.90
2023-02-22T19:43:49.701Z,9.90
2023-02-22T19:46:17.913Z,9.90
2023-02-22T19:48:45.389Z,9.90
2023-02-22T19:51:14.533Z,9.90
2023-02-22T19:53:42.836Z,9.80
2023-02-22T19:56:16.866Z,9.80
2023-02-22T19:58:45.294Z,9.70
2023-02-22T20:01:24.381Z,9.70
2023-02-22T20:03:54.576Z,9.80
2023-02-22T20:06:25.632Z,9.80
2023-02-22T20:08:53.220Z,9.70
2023-02-22T20:11:20.367Z,9.70
2023-02-22T20:13:47.696Z,9.70
2023-02-22T20:16:15.735Z,9.70
2023-02-22T20:18:43.823Z,9.60
2023-02-22T20:21:12.826Z,9.60
2023-02-22T20:23:41.565Z,9.60
2023-02-22T20:26:15.132Z,9.60
2023-02-22T20:28:42.226Z,9.60
2023-02-22T20:31:14.238Z,9.60
2023-02-22T20:33:42.832Z,9.60
2023-02-22T20:36:11.070Z,9.60
2023-02-22T20:38:38.688Z,9.60
2023-02-22T20:41:12.676Z,9.60
2023-02-22T20:43:42.272Z,9.50
2023-02-22T20:46:09.207Z,9.50
2023-02-22T20:48:36.110Z,9.50
2023-02-22T20:51:08.020Z,9.50
2023-02-22T20:53:35.462Z,9.50
2023-02-22T20:56:02.686Z,9.40
2023-02-22T20:58:29.524Z,9.40
2023-02-22T21:00:56.364Z,9.40
2023-02-22T21:03:23.261Z,9.30
2023-02-22T21:05:50.156Z,9.30
2023-02-22T21:08:17.004Z,9.30
2023-02-22T21:10:46.546Z,9.30
2023-02-22T21:13:13.635Z,9.40
2023-02-22T21:15:43.574Z,9.50
2023-02-22T21:18:14.120Z,9.50
2023-02-22T21:20:43.290Z,9.50
2023-02-22T21:23:13.761Z,9.50
2023-02-22T21:25:49.297Z,9.50
2023-02-22T21:28:16.275Z,9.50
2023-02-22T21:30:43.369Z,9.50
2023-02-22T21:33:10.800Z,9.50
2023-02-22T21:35:40.278Z,9.40
2023-02-22T21:38:07.345Z,9.40
2023-02-22T21:40:37.337Z,9.30
2023-02-22T21:43:04.208Z,9.30
2023-02-22T21:45:31.769Z,9.20
2023-02-22T21:47:59.490Z,9.20
2023-02-22T21:50:30.186Z,9.10
2023-02-22T21:52:58.153Z,9.00
2023-02-22T21:55:25.145Z,8.90
2023-02-22T21:57:52.096Z,8.90
2023-02-22T22:00:29.057Z,8.80
2023-02-22T22:02:59.378Z,8.80
2023-02-22T22:05:35.049Z,8.70
2023-02-22T22:08:02.071Z,8.80
2023-02-22T22:10:31.023Z,8.90
2023-02-22T22:12:58.310Z,8.90
2023-02-22T22:15:26.262Z,9.00
2023-02-22T22:17:53.482Z,9.00
2023-02-22T22:20:22.065Z,9.10
2023-02-22T22:22:49.231Z,9.10
2023-02-22T22:25:19.200Z,9.10
2023-02-22T22:27:46.562Z,9.10
2023-02-22T22:30:16.102Z,9.20
2023-02-22T22:32:43.545Z,9.20
2023-02-22T22:35:14.664Z,9.20
2023-02-22T22:37:42.715Z,9.20
2023-02-22T22:40:15.696Z,9.30
2023-02-22T22:42:42.958Z,9.30
2023-02-22T22:45:11.834Z,9.30
2023-02-22T22:47:39.579Z,9.30
2023-02-22T22:50:07.519Z,9.30
2023-02-22T22:52:35.734Z,9.30
2023-02-22T22:55:02.846Z,9.30
2023-02-22T22:57:29.746Z,9.30
2023-02-22T22:59:56.864Z,9.30
2023-02-22T23:02:23.742Z,9.30
2023-02-22T23:04:51.769Z,9.30
2023-02-22T23:07:18.820Z,9.30
2023-02-22T23:09:45.662Z,9.30
2023-02-22T23:12:16.844Z,9.30
2023-02-22T23:14:44.982Z,9.30
2023-02-22T23:17:15.737Z,9.40
2023-02-22T23:19:45.066Z,9.40
2023-02-22T23:22:14.517Z,9.30
2023-02-22T23:24:42.759Z,9.40
2023-02-22T23:27:12.361Z,9.40
2023-02-22T23:29:41.591Z,9.40
2023-02-22T23:32:09.105Z,9.40
2023-02-22T23:34:37.041Z,9.40
2023-02-22T23:37:03.952Z,9.40
2023-02-22T23:39:30.841Z,9.30
2023-02-22T23:41:59.528Z,9.30
2023-02-22T23:44:27.376Z,9.40
2023-02-22T23:46:57.776Z,9.30
2023-02-22T23:49:36.091Z,9.30
2023-02-22T23:52:06.965Z,9.30
2023-02-22T23:54:40.279Z,9.40
2023-02-22T23:57:08.874Z,9.30
2023-02-22T23:59:36.619Z,9.30
